createdAt,value
2022-09-28T00:01:27.080Z,7.56
2022-09-28T00:03:59.662Z,7.55
2022-09-28T00:06:30.127Z,7.54
2022-09-28T00:08:58.520Z,7.56
2022-09-28T00:11:28.179Z,7.55
2022-09-28T00:14:01.866Z,7.55
2022-09-28T00:16:33.211Z,7.57
2022-09-28T00:19:00.384Z,7.54
2022-09-28T00:21:32.645Z,7.52
2022-09-28T00:24:15.591Z,7.51
2022-09-28T00:26:51.733Z,7.50
2022-09-28T00:29:26.957Z,7.51
2022-09-28T00:32:03.316Z,7.49
2022-09-28T00:34:34.672Z,7.49
2022-09-28T00:37:04.106Z,7.47
2022-09-28T00:39:35.902Z,7.47
2022-09-28T00:42:05.533Z,7.48
2022-09-28T00:44:59.907Z,7.47
2022-09-28T00:47:41.497Z,7.46
2022-09-28T00:50:31.124Z,7.48
2022-09-28T00:53:09.312Z,7.48
2022-09-28T00:55:51.130Z,7.52
2022-09-28T00:58:25.520Z,7.54
2022-09-28T01:00:56.163Z,7.58
2022-09-28T01:03:23.732Z,7.59
2022-09-28T01:05:55.027Z,7.60
2022-09-28T01:08:25.336Z,7.61
2022-09-28T01:10:52.416Z,7.62
2022-09-28T01:13:23.511Z,7.64
2022-09-28T01:16:31.150Z,7.64
2022-09-28T01:19:52.511Z,7.62
2022-09-28T01:22:31.299Z,7.60
2022-09-28T01:25:17.465Z,7.57
2022-09-28T01:28:23.637Z,7.54
2022-09-28T01:31:15.951Z,7.51
2022-09-28T01:33:56.900Z,7.46
2022-09-28T01:36:48.086Z,7.43
2022-09-28T01:39:30.416Z,7.41
2022-09-28T01:42:08.496Z,7.40
2022-09-28T01:44:42.009Z,7.42
2022-09-28T01:47:17.771Z,7.45
2022-09-28T01:49:58.397Z,7.43
2022-09-28T01:52:40.549Z,7.45
2022-09-28T01:55:30.976Z,7.41
2022-09-28T01:58:18.993Z,7.35
2022-09-28T02:00:56.547Z,7.28
2022-09-28T02:03:48.800Z,7.26
2022-09-28T02:06:26.983Z,7.24
2022-09-28T02:09:00.387Z,7.21
2022-09-28T02:11:43.263Z,7.23
2022-09-28T02:14:16.274Z,7.25
2022-09-28T02:16:50.598Z,7.29
2022-09-28T02:19:25.947Z,7.30
2022-09-28T02:22:23.805Z,7.30
2022-09-28T02:25:10.338Z,7.32
2022-09-28T02:27:52.369Z,7.33
2022-09-28T02:30:19.510Z,7.36
2022-09-28T02:32:51.500Z,7.41
2022-09-28T02:35:19.684Z,7.43
2022-09-28T02:37:47.343Z,7.47
2022-09-28T02:40:14.343Z,7.49
2022-09-28T02:43:24.845Z,7.55
2022-09-28T02:46:37.433Z,7.58
2022-09-28T02:49:32.061Z,7.57
2022-09-28T02:52:23.044Z,7.60
2022-09-28T02:54:58.978Z,7.55
2022-09-28T02:57:46.311Z,7.55
2022-09-28T03:00:23.978Z,7.52
2022-09-28T03:03:45.182Z,7.46
2022-09-28T03:06:29.689Z,7.43
2022-09-28T03:09:19.466Z,7.46
2022-09-28T03:12:00.375Z,7.47
2022-09-28T03:14:27.432Z,7.43
2022-09-28T03:16:57.213Z,7.41
2022-09-28T03:19:32.432Z,7.38
2022-09-28T03:22:00.926Z,7.38
2022-09-28T03:24:27.813Z,7.38
2022-09-28T03:26:54.767Z,7.39
2022-09-28T03:29:22.787Z,7.42
2022-09-28T03:31:56.580Z,7.47
2022-09-28T03:34:23.513Z,7.49
2022-09-28T03:36:51.484Z,7.50
2022-09-28T03:39:18.457Z,7.52
2022-09-28T03:41:45.458Z,7.51
2022-09-28T03:44:12.809Z,7.50
2022-09-28T03:46:39.665Z,7.50
2022-09-28T03:49:10.376Z,7.46
2022-09-28T03:51:37.243Z,7.42
2022-09-28T03:54:04.968Z,7.41
2022-09-28T03:56:32.451Z,7.39
2022-09-28T03:58:59.337Z,7.40
2022-09-28T04:01:26.956Z,7.40
2022-09-28T04:03:58.010Z,7.41
2022-09-28T04:06:26.145Z,7.43
2022-09-28T04:08:53.101Z,7.42
2022-09-28T04:11:20.059Z,7.43
2022-09-28T04:13:50.379Z,7.39
2022-09-28T04:16:18.577Z,7.36
2022-09-28T04:18:54.759Z,7.33
2022-09-28T04:21:40.837Z,7.28
2022-09-28T04:24:11.308Z,7.25
2022-09-28T04:26:38.195Z,7.24
2022-09-28T04:29:17.221Z,7.23
2022-09-28T04:31:51.853Z,7.20
2022-09-28T04:34:22.955Z,7.16
2022-09-28T04:36:50.466Z,7.11
2022-09-28T04:39:19.313Z,7.09
2022-09-28T04:41:52.923Z,7.04
2022-09-28T04:44:19.705Z,7.03
2022-09-28T04:46:47.882Z,7.00
2022-09-28T04:49:29.890Z,6.99
2022-09-28T04:52:01.771Z,6.96
2022-09-28T04:54:28.586Z,6.92
2022-09-28T04:56:57.747Z,6.90
2022-09-28T04:59:24.889Z,6.90
2022-09-28T05:01:53.644Z,6.92
2022-09-28T05:04:25.586Z,6.92
2022-09-28T05:07:26.916Z,6.92
2022-09-28T05:09:55.247Z,6.89
2022-09-28T05:12:22.074Z,6.87
2022-09-28T05:14:48.919Z,6.88
2022-09-28T05:17:15.808Z,6.94
2022-09-28T05:20:09.374Z,6.93
2022-09-28T05:22:36.344Z,6.93
2022-09-28T05:25:05.591Z,6.91
2022-09-28T05:27:44.030Z,6.88
2022-09-28T05:30:26.357Z,6.85
2022-09-28T05:33:08.980Z,6.80
2022-09-28T05:35:47.855Z,6.81
2022-09-28T05:38:16.728Z,6.79
2022-09-28T05:40:43.783Z,6.77
2022-09-28T05:43:10.687Z,6.74
2022-09-28T05:45:38.328Z,6.70
2022-09-28T05:48:05.426Z,6.67
2022-09-28T05:50:32.270Z,6.67
2022-09-28T05:53:10.082Z,6.67
2022-09-28T05:55:38.202Z,6.75
2022-09-28T05:58:07.918Z,6.80
2022-09-28T06:00:36.516Z,6.89
2022-09-28T06:03:09.443Z,6.97
2022-09-28T06:05:39.348Z,7.04
2022-09-28T06:08:10.395Z,7.11
2022-09-28T06:10:38.928Z,7.18
2022-09-28T06:13:07.329Z,7.20
2022-09-28T06:15:36.427Z,7.19
2022-09-28T06:18:09.880Z,7.19
2022-09-28T06:20:42.281Z,7.20
2022-09-28T06:23:14.351Z,7.23
2022-09-28T06:25:41.335Z,7.27
2022-09-28T06:28:14.584Z,7.32
2022-09-28T06:30:43.826Z,7.35
2022-09-28T06:33:16.241Z,7.40
2022-09-28T06:35:43.260Z,7.43
2022-09-28T06:38:11.108Z,7.47
2022-09-28T06:40:38.958Z,7.48
2022-09-28T06:43:11.732Z,7.45
2022-09-28T06:45:57.031Z,7.42
2022-09-28T06:48:44.018Z,7.38
2022-09-28T06:51:15.060Z,7.35
2022-09-28T06:54:05.139Z,7.38
2022-09-28T06:56:48.126Z,7.51
2022-09-28T06:59:15.626Z,7.76
2022-09-28T07:01:42.566Z,7.89
2022-09-28T07:04:27.867Z,7.97
2022-09-28T07:07:14.982Z,7.97
2022-09-28T07:10:00.478Z,8.18
2022-09-28T07:13:05.361Z,8.59
2022-09-28T07:15:43.872Z,8.63
2022-09-28T07:18:13.558Z,8.57
2022-09-28T07:20:52.483Z,8.58
2022-09-28T07:23:20.977Z,8.60
2022-09-28T07:26:18.963Z,8.62
2022-09-28T07:29:07.250Z,8.62
2022-09-28T07:31:40.414Z,8.60
2022-09-28T07:34:39.810Z,8.55
2022-09-28T07:37:13.319Z,8.50
2022-09-28T07:39:59.311Z,8.46
2022-09-28T07:42:29.891Z,8.45
2022-09-28T07:44:58.274Z,8.43
2022-09-28T07:47:34.675Z,8.44
2022-09-28T07:50:21.273Z,8.48
2022-09-28T07:53:00.669Z,8.56
2022-09-28T07:55:54.578Z,8.58
2022-09-28T07:58:38.799Z,8.62
2022-09-28T08:01:24.058Z,8.65
2022-09-28T08:03:51.584Z,8.69
2022-09-28T08:06:19.030Z,8.74
2022-09-28T08:08:46.040Z,8.80
2022-09-28T08:11:20.704Z,8.90
2022-09-28T08:14:13.262Z,8.95
2022-09-28T08:16:54.757Z,9.00
2022-09-28T08:19:52.487Z,9.05
2022-09-28T08:22:20.261Z,9.14
2022-09-28T08:24:49.893Z,9.23
2022-09-28T08:27:18.376Z,9.28
2022-09-28T08:29:45.377Z,9.29
2022-09-28T08:32:31.131Z,9.31
2022-09-28T08:35:16.559Z,9.42
2022-09-28T08:38:11.604Z,9.51
2022-09-28T08:41:52.786Z,9.64
2022-09-28T08:44:48.181Z,9.75
2022-09-28T08:48:11.936Z,9.80
2022-09-28T08:51:31.483Z,9.89
2022-09-28T08:54:24.366Z,9.99
2022-09-28T08:57:32.117Z,10.19
2022-09-28T09:00:02.611Z,10.42
2022-09-28T09:02:39.655Z,10.56
2022-09-28T09:05:19.051Z,10.69
2022-09-28T09:08:35.057Z,10.84
2022-09-28T09:11:23.207Z,10.97
2022-09-28T09:14:20.876Z,11.06
2022-09-28T09:17:15.454Z,11.12
2022-09-28T09:20:33.971Z,11.14
2022-09-28T09:23:56.810Z,11.18
2022-09-28T09:26:38.569Z,11.31
2022-09-28T09:29:37.491Z,11.46
2022-09-28T09:32:17.205Z,11.57
2022-09-28T09:35:18.557Z,11.68
2022-09-28T09:38:58.120Z,11.89
2022-09-28T09:42:08.329Z,12.13
2022-09-28T09:45:32.629Z,12.26
2022-09-28T09:48:36.961Z,12.21
2022-09-28T09:51:19.630Z,12.15
2022-09-28T09:54:00.116Z,12.14
2022-09-28T09:56:45.090Z,12.30
2022-09-28T09:59:31.112Z,12.54
2022-09-28T10:02:35.377Z,12.73
2022-09-28T10:05:11.279Z,12.83
2022-09-28T10:08:02.976Z,12.84
2022-09-28T10:10:38.845Z,12.80
2022-09-28T10:13:11.572Z,12.86
2022-09-28T10:15:42.384Z,12.94
2022-09-28T10:18:21.361Z,13.07
2022-09-28T10:21:10.729Z,13.26
2022-09-28T10:24:03.945Z,13.35
2022-09-28T10:26:48.219Z,13.24
2022-09-28T10:29:25.184Z,13.12
2022-09-28T10:32:02.913Z,13.05
2022-09-28T10:34:35.517Z,13.14
2022-09-28T10:37:12.835Z,13.20
2022-09-28T10:40:00.065Z,13.27
2022-09-28T10:42:34.040Z,13.44
2022-09-28T10:45:23.764Z,13.73
2022-09-28T10:47:51.418Z,13.85
2022-09-28T10:50:28.044Z,13.88
2022-09-28T10:53:20.588Z,13.84
2022-09-28T10:56:06.064Z,13.74
2022-09-28T10:58:42.157Z,13.72
2022-09-28T11:01:23.114Z,13.79
2022-09-28T11:04:01.600Z,13.95
2022-09-28T11:06:38.709Z,14.15
2022-09-28T11:09:29.802Z,14.17
2022-09-28T11:12:04.482Z,14.14
2022-09-28T11:14:42.612Z,14.02
2022-09-28T11:17:40.487Z,13.90
2022-09-28T11:20:27.461Z,13.84
2022-09-28T11:23:20.458Z,13.97
2022-09-28T11:26:02.871Z,14.16
2022-09-28T11:28:35.906Z,14.30
2022-09-28T11:31:09.478Z,14.36
2022-09-28T11:33:47.866Z,14.39
2022-09-28T11:37:05.369Z,14.54
2022-09-28T11:40:04.649Z,14.71
2022-09-28T11:43:09.568Z,14.70
2022-09-28T11:45:59.286Z,14.65
2022-09-28T11:48:54.584Z,14.56
2022-09-28T11:51:30.300Z,14.46
2022-09-28T11:54:14.197Z,14.43
2022-09-28T11:56:48.645Z,14.42
2022-09-28T11:59:27.602Z,14.43
2022-09-28T12:02:03.749Z,14.51
2022-09-28T12:05:15.845Z,14.65
2022-09-28T12:08:17.536Z,14.72
2022-09-28T12:11:27.260Z,14.81
2022-09-28T12:14:30.963Z,14.78
2022-09-28T12:17:09.690Z,14.63
2022-09-28T12:19:50.655Z,14.66
2022-09-28T12:22:33.386Z,14.57
2022-09-28T12:25:05.462Z,14.55
2022-09-28T12:27:50.567Z,14.72
2022-09-28T12:30:21.963Z,15.04
2022-09-28T12:32:59.973Z,15.43
2022-09-28T12:36:12.919Z,15.62
2022-09-28T12:39:17.601Z,15.63
2022-09-28T12:42:16.890Z,15.50
2022-09-28T12:45:02.161Z,15.31
2022-09-28T12:48:22.560Z,14.93
2022-09-28T12:51:43.646Z,14.59
2022-09-28T12:54:34.581Z,14.96
2022-09-28T12:57:36.404Z,15.27
2022-09-28T13:00:17.705Z,15.25
2022-09-28T13:03:03.124Z,14.91
2022-09-28T13:06:26.407Z,13.91
2022-09-28T13:08:58.705Z,13.22
2022-09-28T13:11:45.367Z,12.74
2022-09-28T13:14:53.181Z,12.46
2022-09-28T13:17:44.868Z,12.27
2022-09-28T13:20:56.378Z,12.14
2022-09-28T13:23:37.772Z,11.90
2022-09-28T13:26:35.352Z,11.79
2022-09-28T13:29:14.214Z,11.77
2022-09-28T13:31:53.262Z,11.70
2022-09-28T13:34:26.255Z,11.55
2022-09-28T13:37:17.350Z,11.40
2022-09-28T13:39:44.060Z,11.24
2022-09-28T13:42:34.024Z,11.32
2022-09-28T13:45:03.605Z,11.66
2022-09-28T13:47:42.521Z,12.10
2022-09-28T13:50:27.492Z,12.26
2022-09-28T13:53:16.633Z,12.33
2022-09-28T13:56:35.410Z,12.99
2022-09-28T13:59:14.526Z,13.32
2022-09-28T14:01:55.903Z,13.31
2022-09-28T14:04:47.449Z,13.22
2022-09-28T14:07:46.557Z,13.01
2022-09-28T14:10:25.806Z,12.93
2022-09-28T14:12:54.293Z,12.84
2022-09-28T14:15:30.055Z,12.68
2022-09-28T14:18:36.758Z,12.56
2022-09-28T14:21:40.944Z,12.41
2022-09-28T14:24:30.231Z,11.79
2022-09-28T14:27:32.919Z,11.31
2022-09-28T14:30:13.999Z,11.08
2022-09-28T14:32:53.956Z,11.08
2022-09-28T14:35:31.746Z,11.18
2022-09-28T14:38:35.466Z,11.26
2022-09-28T14:41:18.060Z,11.37
2022-09-28T14:43:44.812Z,11.46
2022-09-28T14:46:11.649Z,11.53
2022-09-28T14:49:04.326Z,11.43
2022-09-28T14:51:31.042Z,11.40
2022-09-28T14:54:29.637Z,11.14
2022-09-28T14:57:17.301Z,11.02
2022-09-28T14:59:46.231Z,10.91
2022-09-28T15:02:38.464Z,10.82
2022-09-28T15:05:28.889Z,10.68
2022-09-28T15:07:56.089Z,10.55
2022-09-28T15:10:32.690Z,10.48
2022-09-28T15:13:03.392Z,10.47
2022-09-28T15:15:35.619Z,10.47
2022-09-28T15:18:33.439Z,10.48
2022-09-28T15:21:01.534Z,10.46
2022-09-28T15:23:36.914Z,10.36
2022-09-28T15:26:08.437Z,10.34
2022-09-28T15:28:44.955Z,10.40
2022-09-28T15:31:19.545Z,10.40
2022-09-28T15:34:05.147Z,10.35
2022-09-28T15:36:43.297Z,10.40
2022-09-28T15:39:25.692Z,10.42
2022-09-28T15:41:53.243Z,10.48
2022-09-28T15:44:36.226Z,10.60
2022-09-28T15:47:40.092Z,10.82
2022-09-28T15:50:32.993Z,10.89
2022-09-28T15:53:05.657Z,11.01
2022-09-28T15:55:42.392Z,11.34
2022-09-28T15:58:22.629Z,11.78
2022-09-28T16:01:23.603Z,12.27
2022-09-28T16:03:50.544Z,12.66
2022-09-28T16:06:17.622Z,12.61
2022-09-28T16:08:46.205Z,12.46
2022-09-28T16:11:26.212Z,12.27
2022-09-28T16:14:07.311Z,12.12
2022-09-28T16:16:48.609Z,11.94
2022-09-28T16:19:25.890Z,11.76
2022-09-28T16:21:58.979Z,11.57
2022-09-28T16:24:33.023Z,11.42
2022-09-28T16:27:14.275Z,11.32
2022-09-28T16:29:45.024Z,11.26
2022-09-28T16:32:26.765Z,11.25
2022-09-28T16:35:11.568Z,11.22
2022-09-28T16:37:43.302Z,11.16
2022-09-28T16:40:11.976Z,11.13
2022-09-28T16:42:49.071Z,11.11
2022-09-28T16:45:23.769Z,11.08
2022-09-28T16:47:52.370Z,11.05
2022-09-28T16:50:21.654Z,11.01
2022-09-28T16:53:40.342Z,10.99
2022-09-28T16:56:07.751Z,10.92
2022-09-28T16:58:36.541Z,10.91
2022-09-28T17:01:03.754Z,10.84
2022-09-28T17:03:30.766Z,10.77
2022-09-28T17:05:57.602Z,10.68
2022-09-28T17:08:25.591Z,10.68
2022-09-28T17:11:13.914Z,10.66
2022-09-28T17:13:43.665Z,10.68
2022-09-28T17:16:17.755Z,10.72
2022-09-28T17:18:46.044Z,10.70
2022-09-28T17:21:19.398Z,10.67
2022-09-28T17:23:49.211Z,10.65
2022-09-28T17:26:36.026Z,10.54
2022-09-28T17:29:02.940Z,10.47
2022-09-28T17:31:30.405Z,10.40
2022-09-28T17:33:57.481Z,10.35
2022-09-28T17:36:25.900Z,10.30
2022-09-28T17:38:52.748Z,10.23
2022-09-28T17:41:21.168Z,10.16
2022-09-28T17:43:48.959Z,10.10
2022-09-28T17:46:33.947Z,10.03
2022-09-28T17:49:05.585Z,9.99
2022-09-28T17:51:37.502Z,9.96
2022-09-28T17:54:07.023Z,9.93
2022-09-28T17:56:35.609Z,9.90
2022-09-28T17:59:06.640Z,9.89
2022-09-28T18:01:38.045Z,9.85
2022-09-28T18:04:08.827Z,9.81
2022-09-28T18:06:37.160Z,9.80
2022-09-28T18:09:05.275Z,9.78
2022-09-28T18:11:33.771Z,9.74
2022-09-28T18:14:00.997Z,9.67
2022-09-28T18:16:29.177Z,9.63
2022-09-28T18:18:56.490Z,9.55
2022-09-28T18:21:23.355Z,9.50
2022-09-28T18:23:50.191Z,9.44
2022-09-28T18:26:19.588Z,9.39
2022-09-28T18:28:46.952Z,9.32
2022-09-28T18:31:15.609Z,9.24
2022-09-28T18:33:52.451Z,9.19
2022-09-28T18:36:19.265Z,9.15
2022-09-28T18:38:46.063Z,9.11
2022-09-28T18:41:15.792Z,9.08
2022-09-28T18:43:49.142Z,9.09
2022-09-28T18:46:18.320Z,9.08
2022-09-28T18:48:47.646Z,9.07
2022-09-28T18:51:14.851Z,9.07
2022-09-28T18:53:42.187Z,9.05
2022-09-28T18:56:13.124Z,9.01
2022-09-28T18:58:42.224Z,8.97
2022-09-28T19:01:36.252Z,8.94
2022-09-28T19:04:07.110Z,8.89
2022-09-28T19:06:36.983Z,8.85
2022-09-28T19:09:04.383Z,8.80
2022-09-28T19:11:31.243Z,8.75
2022-09-28T19:13:58.080Z,8.70
2022-09-28T19:16:28.749Z,8.68
2022-09-28T19:18:57.929Z,8.66
2022-09-28T19:21:25.560Z,8.63
2022-09-28T19:23:55.025Z,8.60
2022-09-28T19:26:26.897Z,8.59
2022-09-28T19:28:57.341Z,8.60
2022-09-28T19:31:26.526Z,8.63
2022-09-28T19:33:53.370Z,8.67
2022-09-28T19:36:24.218Z,8.70
2022-09-28T19:38:53.211Z,8.71
2022-09-28T19:41:47.529Z,8.71
2022-09-28T19:44:24.740Z,8.70
2022-09-28T19:46:56.213Z,8.69
2022-09-28T19:49:25.962Z,8.70
2022-09-28T19:52:15.179Z,8.71
2022-09-28T19:54:56.678Z,8.67
2022-09-28T19:57:31.697Z,8.65
2022-09-28T20:00:02.793Z,8.63
2022-09-28T20:02:34.846Z,8.60
2022-09-28T20:05:02.095Z,8.60
2022-09-28T20:07:32.775Z,8.57
2022-09-28T20:09:59.643Z,8.52
2022-09-28T20:12:26.439Z,8.46
2022-09-28T20:14:53.267Z,8.38
2022-09-28T20:17:21.681Z,8.30
2022-09-28T20:19:51.108Z,8.22
2022-09-28T20:22:18.593Z,8.13
2022-09-28T20:24:45.521Z,8.06
2022-09-28T20:27:12.274Z,8.00
2022-09-28T20:29:39.070Z,7.94
2022-09-28T20:32:05.916Z,7.87
2022-09-28T20:34:34.003Z,7.83
2022-09-28T20:37:01.429Z,7.77
2022-09-28T20:39:28.265Z,7.74
2022-09-28T20:41:56.003Z,7.74
2022-09-28T20:44:22.796Z,7.72
2022-09-28T20:46:51.569Z,7.74
2022-09-28T20:49:18.362Z,7.76
2022-09-28T20:51:45.123Z,7.78
2022-09-28T20:54:11.953Z,7.79
2022-09-28T20:56:39.242Z,7.79
2022-09-28T20:59:12.484Z,7.78
2022-09-28T21:01:40.510Z,7.74
2022-09-28T21:04:10.227Z,7.66
2022-09-28T21:06:41.651Z,7.60
2022-09-28T21:09:10.983Z,7.56
2022-09-28T21:11:39.796Z,7.56
2022-09-28T21:14:09.608Z,7.55
2022-09-28T21:16:37.417Z,7.55
2022-09-28T21:19:04.554Z,7.55
2022-09-28T21:21:31.510Z,7.56
2022-09-28T21:23:59.051Z,7.56
2022-09-28T21:26:31.033Z,7.57
2022-09-28T21:29:01.462Z,7.58
2022-09-28T21:31:39.383Z,7.58
2022-09-28T21:34:06.983Z,7.56
2022-09-28T21:36:34.293Z,7.55
2022-09-28T21:39:01.060Z,7.54
2022-09-28T21:41:29.094Z,7.54
2022-09-28T21:43:56.144Z,7.51
2022-09-28T21:46:23.032Z,7.49
2022-09-28T21:48:53.747Z,7.45
2022-09-28T21:51:21.706Z,7.38
2022-09-28T21:53:49.251Z,7.32
2022-09-28T21:56:16.479Z,7.29
2022-09-28T21:58:43.291Z,7.25
2022-09-28T22:01:18.017Z,7.21
2022-09-28T22:03:48.900Z,7.14
2022-09-28T22:06:19.720Z,7.09
2022-09-28T22:08:47.877Z,7.06
2022-09-28T22:11:19.368Z,7.02
2022-09-28T22:13:52.518Z,6.99
2022-09-28T22:16:23.421Z,6.94
2022-09-28T22:18:51.005Z,6.96
2022-09-28T22:21:24.148Z,6.92
2022-09-28T22:23:51.354Z,6.88
2022-09-28T22:26:22.688Z,6.86
2022-09-28T22:28:56.398Z,6.87
2022-09-28T22:31:27.522Z,6.86
2022-09-28T22:33:55.185Z,6.87
2022-09-28T22:36:22.257Z,6.90
2022-09-28T22:38:49.853Z,6.92
2022-09-28T22:41:20.899Z,6.93
2022-09-28T22:43:50.151Z,6.95
2022-09-28T22:46:21.198Z,6.98
2022-09-28T22:48:51.986Z,7.01
2022-09-28T22:51:19.764Z,7.02
2022-09-28T22:53:49.551Z,6.99
2022-09-28T22:56:18.981Z,6.97
2022-09-28T22:58:47.307Z,6.92
2022-09-28T23:01:18.590Z,6.92
2022-09-28T23:03:47.007Z,6.89
2022-09-28T23:06:19.813Z,6.87
2022-09-28T23:08:48.131Z,6.88
2022-09-28T23:11:15.641Z,6.86
2022-09-28T23:13:56.309Z,6.89
2022-09-28T23:16:25.805Z,6.85
2022-09-28T23:18:55.133Z,6.87
2022-09-28T23:21:26.658Z,6.88
2022-09-28T23:24:01.548Z,6.85
2022-09-28T23:26:32.336Z,6.87
2022-09-28T23:29:00.336Z,6.85
2022-09-28T23:31:31.270Z,6.84
2022-09-28T23:34:07.196Z,6.83
2022-09-28T23:36:34.720Z,6.78
2022-09-28T23:39:03.107Z,6.75
2022-09-28T23:41:30.316Z,6.75
2022-09-28T23:43:57.387Z,6.71
2022-09-28T23:46:24.488Z,6.63
2022-09-28T23:48:51.604Z,6.59
2022-09-28T23:51:18.822Z,6.57
2022-09-28T23:53:46.160Z,6.58
2022-09-28T23:56:14.486Z,6.59
2022-09-28T23:58:41.367Z,6.55
